• Join FlightAware (Why Join?)
  • Login
  • US Flag 
11:15AM EDT


 

Airport Tracker/Info


-or-


 

Live Flight TrackerFlight Track Log ✈ EJA142 ✈ 19-Feb-2014 ✈ KPBI - KTEB

Flight Track Log - Related Links

Times and Time Zones

All times are in EST time to prevent confusion due to time zone crossing. See the EJA142 flight status page for this flight to view local times or setup timezone preferences in your user account.

Time Position Orientation Groundspeed Altitude Reporting Facility
EST Latitude Longitude Course Direction KTS MPH feet Rate Location/Type
10:04AM 26.7392 -79.9481 53° Northeast 279 321 8,400  Level Miami Center
10:05AM 26.8008 -79.8869 41° Northeast 289 333 11,000 1,260 Climbing Miami Center
10:06AM 26.8656 -79.7953 52° Northeast 340 391 11,000 180 Level Miami Center
10:07AM 26.9236 -79.7083 53° Northeast 377 434 11,400 1,200 Climbing Miami Center
10:08AM 27.0434 -79.5099 53° Northeast  Level FlightAware Approximate
10:08AM 26.9861 -79.6097 55° Northeast 383 441 13,500  Level Miami Center
10:09AM 27.0633 -79.4972 52° Northeast 399 459 16,500 2,820 Climbing Miami Center
10:10AM 27.1300 -79.3914 55° Northeast 399 459 19,200 2,640 Climbing Miami Center
10:11AM 27.1942 -79.2922 54° Northeast 421 484 21,800 2,340 Climbing Miami Center
10:12AM 27.2650 -79.1794 55° Northeast 437 503 23,900 2,160 Climbing Miami Center
10:13AM 27.3547 -79.0503 52° Northeast 459 528 26,200 2,100 Climbing Miami Center
10:14AM 27.4786 -79.0056 18° North 444 511 28,100 1,740 Climbing Miami Center
10:15AM 27.6083 -78.9869 North 444 511 29,700 2,100 Climbing Miami Center
10:16AM 27.7297 -78.9658 North 469 540 32,400 2,280 Climbing Miami Center
10:17AM 27.8594 -78.9494 North 474 545 34,300 1,380 Climbing Miami Center
10:18AM 27.9933 -78.9283 North 474 545 35,200 1,740 Climbing Miami Center
10:19AM 28.1294 -78.9072 North 486 559 37,800 1,920 Climbing Miami Center
10:20AM 28.2633 -78.8861 North 486 559 39,100 1,440 Climbing Miami Center
10:21AM 28.3972 -78.8650 North 486 559 40,700 900 Climbing Miami Center
10:22AM 28.5353 -78.8461 North 491 565 41,000 120 Climbing Miami Center
10:23AM 28.6692 -78.8225 North 484 557 41,000  Level Miami Center
10:24AM 28.8050 -78.8011 North 484 557 41,000  Level Miami Center
10:25AM 28.9389 -78.7797 North 484 557 41,000  Level Miami Center
10:26AM 29.0789 -78.7608 North 484 557 41,000  Level Miami Center
10:27AM 29.2128 -78.7347 10° North 489 563 41,000  Level Miami Center
10:28AM 29.3508 -78.7156 North 489 563 41,000  Level Miami Center
10:29AM 29.4950 -78.6967 North 494 568 41,000  Level Miami Center
10:32AM 29.8508 -78.6303 North 500 575 41,000  Level Jacksonville Center
10:33AM 29.9922 -78.6097 North 502 578 41,000  Level Jacksonville Center
10:34AM 30.1289 -78.5844 North 502 578 41,000  Level Jacksonville Center
10:35AM 30.2578 -78.5692 North 503 579 41,000  Level Jacksonville Center
10:36AM 30.3969 -78.5436 North 503 579 41,000  Level Jacksonville Center
10:37AM 30.5319 -78.5231 North 503 579 41,000  Level Jacksonville Center
10:38AM 30.6772 -78.4994 North 503 579 41,000  Level Jacksonville Center
10:39AM 30.8161 -78.4758 North 508 585 41,000  Level Jacksonville Center
10:40AM 30.9594 -78.4522 North 508 585 41,000  Level Jacksonville Center
10:41AM 31.1028 -78.4333 North 508 585 41,000  Level Jacksonville Center
10:42AM 31.2439 -78.4072 North 508 585 41,000  Level Jacksonville Center
10:43AM 31.3808 -78.3836 North 497 572 41,000  Level Jacksonville Center
10:44AM 31.5197 -78.3600 North 497 572 41,000  Level Jacksonville Center
10:45AM 31.6525 -78.3389 North 497 572 41,000  Level Jacksonville Center
10:46AM 31.7897 -78.3172 North 497 572 41,000  Level Jacksonville Center
10:47AM 31.9286 -78.2908 North 502 578 41,000  Level Jacksonville Center
10:48AM 32.0675 -78.2692 North 502 578 41,000  Level Jacksonville Center
10:49AM 32.2186 -78.2344 11° North 495 570 41,000  Level Jacksonville Center
10:50AM 32.3578 -78.2128 North 503 579 41,000  Level Jacksonville Center
10:51AM 32.4969 -78.1958 North 503 579 41,000 -60 Level Jacksonville Center
10:52AM 32.6336 -78.1664 10° North 503 579 40,900  Descending Jacksonville Center
10:53AM 32.7683 -78.1469 North 498 573 41,000  Climbing Jacksonville Center
10:54AM 32.9075 -78.1247 North 498 573 41,000 -60 Level Jacksonville Center
10:55AM 33.1300 -78.0883 North 510 587 40,900  Descending Washington Center
10:56AM 33.2639 -78.0625 North 503 579 41,000  Climbing Washington Center
10:57AM 33.4042 -78.0417 North 503 579 41,000  Level Washington Center
10:58AM 33.5381 -78.0158 North 497 572 41,000  Level Washington Center
10:59AM 33.6742 -77.9947 North 497 572 41,000  Level Washington Center
11:00AM 33.8061 -77.9711 North 487 560 41,000  Level Washington Center
11:01AM 33.9317 -77.9472 North 487 560 41,000  Level Washington Center
11:02AM 34.0656 -77.9233 North 487 560 41,000  Level Washington Center
11:03AM 34.1997 -77.8994 North 482 555 41,000  Level Washington Center
11:04AM 34.3356 -77.8806 North 488 562 41,000  Level Washington Center
11:05AM 34.4692 -77.8769 North 488 562 41,000  Level Washington Center
11:06AM 34.6028 -77.8756 360° North 477 549 41,000  Level Washington Center
11:07AM 34.7386 -77.8692 North 477 549 41,000  Level Washington Center
11:08AM 34.8700 -77.8678 360° North 477 549 41,000  Level Washington Center
11:09AM 35.0078 -77.8642 North 477 549 41,000  Level Washington Center
11:10AM 35.1414 -77.8628 360° North 477 549 41,000  Level Washington Center
11:11AM 35.2750 -77.8614 360° North 477 549 41,000  Level Washington Center
11:12AM 35.4128 -77.8603 360° North 482 555 41,000  Level Washington Center
11:13AM 35.5461 -77.8589 360° North 482 555 41,000  Level Washington Center
11:14AM 35.6839 -77.8553 North 482 555 41,000  Level Washington Center
11:15AM 35.8197 -77.8514 North 482 555 41,000  Level Washington Center
11:16AM 35.9553 -77.8500 360° North 482 555 41,000  Level Washington Center
11:17AM 36.0931 -77.8489 360° North 482 555 41,000  Level Washington Center
11:18AM 36.2433 -77.8481 360° North 487 560 41,000  Level Washington Center
11:19AM 36.3811 -77.8469 360° North 487 560 41,000  Level Washington Center
11:20AM 36.5147 -77.8456 360° North 480 552 41,000  Level Washington Center
11:21AM 36.6503 -77.8442 360° North 480 552 41,000  Level Washington Center
11:22AM 36.7881 -77.8431 360° North 480 552 41,000  Level Washington Center
11:23AM 36.9258 -77.8392 North 485 558 41,000  Level Washington Center
11:24AM 37.0614 -77.8381 360° North 490 564 41,000  Level Washington Center
11:25AM 37.1992 -77.8369 360° North 490 564 41,000  Level Washington Center
11:26AM 37.3369 -77.8331 North 490 564 41,000  Level Washington Center
11:27AM 37.4725 -77.8292 North 490 564 41,000  Level Washington Center
11:28AM 37.6008 -77.7647 22° Northeast 490 564 41,000  Level Washington Center
11:29AM 37.7153 -77.6606 36° Northeast 482 555 41,000  Level Washington Center
11:30AM 37.8319 -77.5531 36° Northeast 499 574 41,000  Level Washington Center
11:31AM 37.9483 -77.4456 36° Northeast 507 583 41,000  Level Washington Center
11:32AM 38.0625 -77.3456 35° Northeast 507 583 41,000 -540 Level Washington Center
11:33AM 38.1786 -77.2375 36° Northeast 512 589 40,000 -1,380 Descending Washington Center
11:34AM 38.2928 -77.1286 37° Northeast 507 583 38,300 -2,040 Descending Washington Center
11:35AM 38.4128 -77.0200 35° Northeast 512 589 36,000 -2,460 Descending Washington Center
11:36AM 38.5308 -76.9081 37° Northeast 517 595 33,400 -2,580 Descending Washington Center
11:37AM 38.6508 -76.7958 36° Northeast 524 603 30,900 -2,580 Descending Washington Center
11:38AM 38.7731 -76.6700 39° Northeast 537 618 28,300 -2,580 Descending Washington Center
11:39AM 38.8847 -76.5411 42° Northeast 543 625 25,800 -2,160 Descending Washington Center
11:40AM 38.9939 -76.4142 42° Northeast 533 613 24,000 -960 Descending Washington Center
11:41AM 39.1031 -76.2869 42° Northeast 528 608 24,000  Level Washington Center
11:42AM 39.2122 -76.1594 42° Northeast 523 602 24,000 -240 Level Washington Center
11:43AM 39.3253 -76.0397 39° Northeast 523 602 23,600 -1,980 Descending Washington Center
11:45AM 39.5667 -75.8167 35° Northeast 480 552 18,200 -2,580 Descending Philadelphia TRACON
11:46AM 39.6667 -75.7167 38° Northeast 472 543 15,700 -2,460 Descending Philadelphia TRACON
11:47AM 39.7667 -75.6167 38° Northeast 462 532 13,300 -1,320 Descending Philadelphia TRACON
11:48AM 39.8833 -75.5167 33° Northeast 445 512 13,000 -180 Descending Philadelphia TRACON
11:49AM 39.9833 -75.4333 33° Northeast 444 511 13,000  Level Philadelphia TRACON
11:51AM 40.0833 -75.3333 37° Northeast 409 471 13,000 -540 Level Philadelphia TRACON
11:52AM 40.2167 -75.2167 34° Northeast 352 405 11,600 -1,200 Descending New York TRACON
11:53AM 40.3000 -75.1333 37° Northeast 341 392 9,900 -1,740 Descending New York TRACON
11:54AM 40.3500 -75.0667 45° Northeast 343 395 8,400 -1,440 Descending New York TRACON
11:55AM 40.4333 -74.9667 42° Northeast 325 374 7,000 -1,080 Descending New York TRACON
11:56AM 40.4833 -74.8833 52° Northeast 320 368 6,200 -900 Descending New York TRACON
11:57AM 40.5500 -74.8000 44° Northeast 317 365 5,200 -1,020 Descending New York TRACON
11:58AM 40.6167 -74.7333 37° Northeast 301 346 4,200 -600 Descending New York TRACON
11:59AM 40.6833 -74.6667 37° Northeast 305 351 4,000 -120 Descending New York TRACON
12:00PM 40.7500 -74.6167 30° Northeast 304 350 4,000  Level New York TRACON
12:01PM 40.8167 -74.5667 30° Northeast 300 345 4,000 -300 Level New York TRACON
12:02PM 40.8833 -74.4833 43° Northeast 294 338 3,400 -540 Descending New York TRACON
12:03PM 40.9333 -74.4167 45° Northeast 285 328 3,000 -240 Descending New York TRACON
12:04PM 40.9667 -74.3167 66° East 286 329 3,000 -540 Level New York TRACON
12:05PM 41.0000 -74.2333 62° Northeast 272 313 2,000 -540 Descending New York TRACON
12:06PM 41.0167 -74.1500 75° East 226 260 2,000  Level New York TRACON
12:07PM 41.0167 -74.0667 90° East 222 255 2,000  Level New York TRACON
12:08PM 41.0167 -74.0000 90° East 197 227 2,000  Level New York TRACON
12:09PM 41.0000 -73.9500 114° Southeast 185 213 2,000  Level New York TRACON
12:10PM 40.9500 -73.9500 180° South 162 186 2,000 -180 Level New York TRACON
12:11PM 40.9167 -73.9833 217° Southwest 146 168 1,700 -420 Descending New York TRACON
12:12PM 40.9000 -74.0167 237° Southwest 117 135 1,200 -660 Descending New York TRACON
12:13PM 40.8667 -74.0500 217° Southwest 130 150 400 -840 Descending New York TRACON